sensor_id;sensor_type;location;lat;lon;timestamp;P1;durP1;ratioP1;P2;durP2;ratioP2
65045;SDS011;54657;52.022;5.534;2023-04-03T00:01:29;1.90;;;1.33;;
65045;SDS011;54657;52.022;5.534;2023-04-03T00:03:55;1.83;;;1.23;;
65045;SDS011;54657;52.022;5.534;2023-04-03T00:06:21;1.38;;;1.20;;
65045;SDS011;54657;52.022;5.534;2023-04-03T00:08:48;2.05;;;1.48;;
65045;SDS011;54657;52.022;5.534;2023-04-03T00:11:14;2.15;;;1.40;;
65045;SDS011;54657;52.022;5.534;2023-04-03T00:13:43;3.03;;;1.30;;
65045;SDS011;54657;52.022;5.534;2023-04-03T00:16:09;3.40;;;1.35;;
65045;SDS011;54657;52.022;5.534;2023-04-03T00:18:36;1.70;;;1.30;;
65045;SDS011;54657;52.022;5.534;2023-04-03T00:21:05;4.07;;;1.98;;
65045;SDS011;54657;52.022;5.534;2023-04-03T00:23:33;1.20;;;1.10;;
65045;SDS011;54657;52.022;5.534;2023-04-03T00:25:59;1.30;;;1.20;;
65045;SDS011;54657;52.022;5.534;2023-04-03T00:28:25;2.08;;;1.20;;
65045;SDS011;54657;52.022;5.534;2023-04-03T00:30:51;1.90;;;1.20;;
65045;SDS011;54657;52.022;5.534;2023-04-03T00:33:17;4.05;;;1.48;;
65045;SDS011;54657;52.022;5.534;2023-04-03T00:35:46;2.42;;;1.10;;
65045;SDS011;54657;52.022;5.534;2023-04-03T00:38:13;1.05;;;1.05;;
65045;SDS011;54657;52.022;5.534;2023-04-03T00:40:41;2.25;;;1.50;;
65045;SDS011;54657;52.022;5.534;2023-04-03T00:43:16;1.15;;;0.95;;
65045;SDS011;54657;52.022;5.534;2023-04-03T00:45:55;3.53;;;1.13;;
65045;SDS011;54657;52.022;5.534;2023-04-03T00:48:23;3.20;;;1.23;;
65045;SDS011;54657;52.022;5.534;2023-04-03T00:50:50;3.00;;;1.10;;
65045;SDS011;54657;52.022;5.534;2023-04-03T00:53:18;1.55;;;1.23;;
65045;SDS011;54657;52.022;5.534;2023-04-03T00:55:48;2.08;;;1.15;;
65045;SDS011;54657;52.022;5.534;2023-04-03T00:58:16;1.70;;;1.20;;
65045;SDS011;54657;52.022;5.534;2023-04-03T01:00:44;4.00;;;1.13;;
65045;SDS011;54657;52.022;5.534;2023-04-03T01:03:13;2.47;;;1.38;;
65045;SDS011;54657;52.022;5.534;2023-04-03T01:05:40;2.50;;;1.30;;
65045;SDS011;54657;52.022;5.534;2023-04-03T01:08:06;5.57;;;1.30;;
65045;SDS011;54657;52.022;5.534;2023-04-03T01:10:31;1.17;;;1.08;;
65045;SDS011;54657;52.022;5.534;2023-04-03T01:12:57;2.47;;;1.23;;
65045;SDS011;54657;52.022;5.534;2023-04-03T01:15:26;1.73;;;1.17;;
65045;SDS011;54657;52.022;5.534;2023-04-03T01:17:55;1.50;;;0.90;;
65045;SDS011;54657;52.022;5.534;2023-04-03T01:22:59;3.17;;;1.10;;
65045;SDS011;54657;52.022;5.534;2023-04-03T01:25:32;2.13;;;1.08;;
65045;SDS011;54657;52.022;5.534;2023-04-03T01:28:01;2.05;;;1.20;;
65045;SDS011;54657;52.022;5.534;2023-04-03T01:30:33;2.90;;;1.20;;
65045;SDS011;54657;52.022;5.534;2023-04-03T01:33:02;1.65;;;1.40;;
65045;SDS011;54657;52.022;5.534;2023-04-03T01:35:28;4.30;;;1.25;;
65045;SDS011;54657;52.022;5.534;2023-04-03T01:37:53;3.97;;;1.48;;
65045;SDS011;54657;52.022;5.534;2023-04-03T01:40:19;1.30;;;1.15;;
65045;SDS011;54657;52.022;5.534;2023-04-03T01:42:45;2.58;;;1.30;;
65045;SDS011;54657;52.022;5.534;2023-04-03T01:45:13;2.53;;;1.30;;
65045;SDS011;54657;52.022;5.534;2023-04-03T01:47:39;2.35;;;1.25;;
65045;SDS011;54657;52.022;5.534;2023-04-03T01:50:05;2.20;;;1.17;;
65045;SDS011;54657;52.022;5.534;2023-04-03T01:52:31;3.72;;;1.15;;
65045;SDS011;54657;52.022;5.534;2023-04-03T01:54:57;4.70;;;1.50;;
65045;SDS011;54657;52.022;5.534;2023-04-03T01:57:23;2.83;;;1.70;;
65045;SDS011;54657;52.022;5.534;2023-04-03T01:59:48;2.67;;;0.98;;
65045;SDS011;54657;52.022;5.534;2023-04-03T02:02:14;3.53;;;1.30;;
65045;SDS011;54657;52.022;5.534;2023-04-03T02:04:40;2.55;;;1.17;;
65045;SDS011;54657;52.022;5.534;2023-04-03T02:07:09;2.20;;;1.40;;
65045;SDS011;54657;52.022;5.534;2023-04-03T02:09:34;3.38;;;1.38;;
65045;SDS011;54657;52.022;5.534;2023-04-03T02:12:00;1.95;;;1.20;;
65045;SDS011;54657;52.022;5.534;2023-04-03T02:14:25;1.98;;;1.17;;
65045;SDS011;54657;52.022;5.534;2023-04-03T02:16:52;3.20;;;1.27;;
65045;SDS011;54657;52.022;5.534;2023-04-03T02:19:18;3.33;;;1.30;;
65045;SDS011;54657;52.022;5.534;2023-04-03T02:21:44;3.30;;;1.85;;
65045;SDS011;54657;52.022;5.534;2023-04-03T02:24:09;2.35;;;1.58;;
65045;SDS011;54657;52.022;5.534;2023-04-03T02:26:35;2.78;;;1.40;;
65045;SDS011;54657;52.022;5.534;2023-04-03T02:29:01;4.72;;;1.55;;
65045;SDS011;54657;52.022;5.534;2023-04-03T02:31:27;5.40;;;1.60;;
65045;SDS011;54657;52.022;5.534;2023-04-03T02:33:53;4.53;;;1.52;;
65045;SDS011;54657;52.022;5.534;2023-04-03T02:36:19;3.58;;;1.40;;
65045;SDS011;54657;52.022;5.534;2023-04-03T02:38:45;1.88;;;1.30;;
65045;SDS011;54657;52.022;5.534;2023-04-03T02:41:13;1.90;;;0.90;;
65045;SDS011;54657;52.022;5.534;2023-04-03T02:43:39;3.42;;;1.35;;
65045;SDS011;54657;52.022;5.534;2023-04-03T02:46:04;6.18;;;1.27;;
65045;SDS011;54657;52.022;5.534;2023-04-03T02:48:30;2.85;;;1.40;;
65045;SDS011;54657;52.022;5.534;2023-04-03T02:50:56;3.55;;;1.35;;
65045;SDS011;54657;52.022;5.534;2023-04-03T02:53:22;3.13;;;1.20;;
65045;SDS011;54657;52.022;5.534;2023-04-03T02:55:47;4.38;;;1.50;;
65045;SDS011;54657;52.022;5.534;2023-04-03T02:58:13;3.25;;;1.33;;
65045;SDS011;54657;52.022;5.534;2023-04-03T03:00:39;2.80;;;1.40;;
65045;SDS011;54657;52.022;5.534;2023-04-03T03:03:05;2.60;;;1.35;;
65045;SDS011;54657;52.022;5.534;2023-04-03T03:05:31;1.88;;;1.15;;
65045;SDS011;54657;52.022;5.534;2023-04-03T03:07:57;1.67;;;1.35;;
65045;SDS011;54657;52.022;5.534;2023-04-03T03:10:22;4.82;;;1.42;;
65045;SDS011;54657;52.022;5.534;2023-04-03T03:12:48;4.20;;;1.23;;
65045;SDS011;54657;52.022;5.534;2023-04-03T03:15:14;2.28;;;1.20;;
65045;SDS011;54657;52.022;5.534;2023-04-03T03:17:42;2.35;;;1.20;;
65045;SDS011;54657;52.022;5.534;2023-04-03T03:20:08;3.47;;;1.10;;
65045;SDS011;54657;52.022;5.534;2023-04-03T03:22:34;3.45;;;1.42;;
65045;SDS011;54657;52.022;5.534;2023-04-03T03:25:00;2.17;;;1.27;;
65045;SDS011;54657;52.022;5.534;2023-04-03T03:27:28;2.03;;;1.40;;
65045;SDS011;54657;52.022;5.534;2023-04-03T03:29:54;3.00;;;1.20;;
65045;SDS011;54657;52.022;5.534;2023-04-03T03:32:20;1.85;;;1.33;;
65045;SDS011;54657;52.022;5.534;2023-04-03T03:34:46;3.83;;;1.45;;
65045;SDS011;54657;52.022;5.534;2023-04-03T03:37:11;2.83;;;1.38;;
65045;SDS011;54657;52.022;5.534;2023-04-03T03:39:37;2.78;;;1.38;;
65045;SDS011;54657;52.022;5.534;2023-04-03T03:42:03;3.08;;;1.33;;
65045;SDS011;54657;52.022;5.534;2023-04-03T03:44:28;2.75;;;1.35;;
65045;SDS011;54657;52.022;5.534;2023-04-03T03:46:54;4.55;;;1.30;;
65045;SDS011;54657;52.022;5.534;2023-04-03T03:49:21;3.70;;;1.52;;
65045;SDS011;54657;52.022;5.534;2023-04-03T03:51:46;3.03;;;1.35;;
65045;SDS011;54657;52.022;5.534;2023-04-03T03:54:12;4.38;;;1.60;;
65045;SDS011;54657;52.022;5.534;2023-04-03T03:56:38;5.25;;;1.73;;
65045;SDS011;54657;52.022;5.534;2023-04-03T03:59:04;4.07;;;1.58;;
65045;SDS011;54657;52.022;5.534;2023-04-03T04:01:30;4.32;;;1.45;;
65045;SDS011;54657;52.022;5.534;2023-04-03T04:03:56;4.00;;;1.20;;
65045;SDS011;54657;52.022;5.534;2023-04-03T04:06:21;3.03;;;1.50;;
65045;SDS011;54657;52.022;5.534;2023-04-03T04:08:47;3.00;;;1.10;;
65045;SDS011;54657;52.022;5.534;2023-04-03T04:11:13;2.22;;;1.33;;
65045;SDS011;54657;52.022;5.534;2023-04-03T04:13:39;3.30;;;1.40;;
65045;SDS011;54657;52.022;5.534;2023-04-03T04:16:05;2.67;;;1.42;;
65045;SDS011;54657;52.022;5.534;2023-04-03T04:18:31;3.10;;;1.15;;
65045;SDS011;54657;52.022;5.534;2023-04-03T04:20:57;2.67;;;1.45;;
65045;SDS011;54657;52.022;5.534;2023-04-03T04:23:22;2.38;;;1.30;;
65045;SDS011;54657;52.022;5.534;2023-04-03T04:25:48;3.65;;;1.50;;
65045;SDS011;54657;52.022;5.534;2023-04-03T04:28:14;1.80;;;1.10;;
65045;SDS011;54657;52.022;5.534;2023-04-03T04:30:41;5.22;;;1.55;;
65045;SDS011;54657;52.022;5.534;2023-04-03T04:33:09;2.70;;;1.30;;
65045;SDS011;54657;52.022;5.534;2023-04-03T04:35:35;3.00;;;1.60;;
65045;SDS011;54657;52.022;5.534;2023-04-03T04:38:00;4.88;;;1.30;;
65045;SDS011;54657;52.022;5.534;2023-04-03T04:40:26;2.70;;;1.27;;
65045;SDS011;54657;52.022;5.534;2023-04-03T04:42:52;2.50;;;1.88;;
65045;SDS011;54657;52.022;5.534;2023-04-03T04:45:18;6.78;;;1.60;;
65045;SDS011;54657;52.022;5.534;2023-04-03T04:47:44;3.80;;;1.73;;
65045;SDS011;54657;52.022;5.534;2023-04-03T04:50:10;3.17;;;1.50;;
65045;SDS011;54657;52.022;5.534;2023-04-03T04:52:36;5.68;;;1.50;;
65045;SDS011;54657;52.022;5.534;2023-04-03T04:55:03;5.80;;;1.58;;
65045;SDS011;54657;52.022;5.534;2023-04-03T04:57:29;3.75;;;1.40;;
65045;SDS011;54657;52.022;5.534;2023-04-03T04:59:54;3.35;;;1.33;;
65045;SDS011;54657;52.022;5.534;2023-04-03T05:02:20;2.13;;;1.38;;
65045;SDS011;54657;52.022;5.534;2023-04-03T05:04:46;3.15;;;1.38;;
65045;SDS011;54657;52.022;5.534;2023-04-03T05:07:11;5.03;;;1.73;;
65045;SDS011;54657;52.022;5.534;2023-04-03T05:09:37;3.70;;;1.65;;
65045;SDS011;54657;52.022;5.534;2023-04-03T05:12:03;8.13;;;1.60;;
65045;SDS011;54657;52.022;5.534;2023-04-03T05:14:29;3.00;;;1.55;;
65045;SDS011;54657;52.022;5.534;2023-04-03T05:16:55;1.67;;;1.25;;
65045;SDS011;54657;52.022;5.534;2023-04-03T05:19:21;5.82;;;1.35;;
65045;SDS011;54657;52.022;5.534;2023-04-03T05:21:47;3.97;;;1.60;;
65045;SDS011;54657;52.022;5.534;2023-04-03T05:24:13;4.30;;;1.60;;
65045;SDS011;54657;52.022;5.534;2023-04-03T05:26:39;3.72;;;1.50;;
65045;SDS011;54657;52.022;5.534;2023-04-03T05:29:05;3.05;;;1.25;;
65045;SDS011;54657;52.022;5.534;2023-04-03T05:31:31;3.90;;;1.48;;
65045;SDS011;54657;52.022;5.534;2023-04-03T05:33:56;4.50;;;1.40;;
65045;SDS011;54657;52.022;5.534;2023-04-03T05:36:23;1.58;;;1.40;;
65045;SDS011;54657;52.022;5.534;2023-04-03T05:38:48;3.85;;;1.60;;
65045;SDS011;54657;52.022;5.534;2023-04-03T05:41:14;4.28;;;1.65;;
65045;SDS011;54657;52.022;5.534;2023-04-03T05:43:40;5.75;;;1.70;;
65045;SDS011;54657;52.022;5.534;2023-04-03T05:46:13;5.82;;;1.63;;
65045;SDS011;54657;52.022;5.534;2023-04-03T05:48:41;4.05;;;1.70;;
65045;SDS011;54657;52.022;5.534;2023-04-03T05:51:09;4.63;;;1.75;;
65045;SDS011;54657;52.022;5.534;2023-04-03T05:53:42;4.57;;;1.40;;
65045;SDS011;54657;52.022;5.534;2023-04-03T05:56:09;3.22;;;1.50;;
65045;SDS011;54657;52.022;5.534;2023-04-03T05:58:35;5.32;;;1.88;;
65045;SDS011;54657;52.022;5.534;2023-04-03T06:01:00;4.85;;;1.10;;
65045;SDS011;54657;52.022;5.534;2023-04-03T06:03:26;3.13;;;1.30;;
65045;SDS011;54657;52.022;5.534;2023-04-03T06:05:52;2.63;;;1.27;;
65045;SDS011;54657;52.022;5.534;2023-04-03T06:08:18;4.30;;;2.10;;
65045;SDS011;54657;52.022;5.534;2023-04-03T06:10:43;2.67;;;1.30;;
65045;SDS011;54657;52.022;5.534;2023-04-03T06:13:09;3.78;;;1.45;;
65045;SDS011;54657;52.022;5.534;2023-04-03T06:15:35;1.45;;;1.35;;
65045;SDS011;54657;52.022;5.534;2023-04-03T06:18:01;2.10;;;1.40;;
65045;SDS011;54657;52.022;5.534;2023-04-03T06:20:27;5.07;;;1.70;;
65045;SDS011;54657;52.022;5.534;2023-04-03T06:22:52;4.60;;;1.45;;
65045;SDS011;54657;52.022;5.534;2023-04-03T06:25:18;3.53;;;1.20;;
65045;SDS011;54657;52.022;5.534;2023-04-03T06:27:44;3.25;;;1.95;;
65045;SDS011;54657;52.022;5.534;2023-04-03T06:30:10;3.67;;;1.25;;
65045;SDS011;54657;52.022;5.534;2023-04-03T06:32:36;4.40;;;1.35;;
65045;SDS011;54657;52.022;5.534;2023-04-03T06:35:05;3.72;;;1.55;;
65045;SDS011;54657;52.022;5.534;2023-04-03T06:37:31;4.13;;;1.40;;
65045;SDS011;54657;52.022;5.534;2023-04-03T06:39:57;3.15;;;1.40;;
65045;SDS011;54657;52.022;5.534;2023-04-03T06:42:23;3.85;;;1.35;;
65045;SDS011;54657;52.022;5.534;2023-04-03T06:44:49;3.35;;;1.10;;
65045;SDS011;54657;52.022;5.534;2023-04-03T06:47:15;3.40;;;1.60;;
65045;SDS011;54657;52.022;5.534;2023-04-03T06:49:42;6.75;;;1.60;;
65045;SDS011;54657;52.022;5.534;2023-04-03T06:52:08;4.15;;;1.40;;
65045;SDS011;54657;52.022;5.534;2023-04-03T06:54:34;3.08;;;1.20;;
65045;SDS011;54657;52.022;5.534;2023-04-03T06:57:01;5.55;;;1.60;;
65045;SDS011;54657;52.022;5.534;2023-04-03T06:59:27;3.25;;;1.33;;
65045;SDS011;54657;52.022;5.534;2023-04-03T07:01:52;4.65;;;1.40;;
65045;SDS011;54657;52.022;5.534;2023-04-03T07:04:18;3.15;;;1.55;;
65045;SDS011;54657;52.022;5.534;2023-04-03T07:06:45;3.83;;;1.40;;
65045;SDS011;54657;52.022;5.534;2023-04-03T07:09:12;2.50;;;1.20;;
65045;SDS011;54657;52.022;5.534;2023-04-03T07:11:38;2.83;;;1.23;;
65045;SDS011;54657;52.022;5.534;2023-04-03T07:14:04;4.32;;;1.38;;
65045;SDS011;54657;52.022;5.534;2023-04-03T07:16:32;3.80;;;1.48;;
65045;SDS011;54657;52.022;5.534;2023-04-03T07:18:58;3.97;;;1.58;;
65045;SDS011;54657;52.022;5.534;2023-04-03T07:21:24;2.63;;;1.35;;
65045;SDS011;54657;52.022;5.534;2023-04-03T07:23:49;4.95;;;1.20;;
65045;SDS011;54657;52.022;5.534;2023-04-03T07:26:15;2.30;;;1.25;;
65045;SDS011;54657;52.022;5.534;2023-04-03T07:28:41;3.67;;;1.33;;
65045;SDS011;54657;52.022;5.534;2023-04-03T07:31:08;2.63;;;1.30;;
65045;SDS011;54657;52.022;5.534;2023-04-03T07:33:38;2.22;;;1.02;;
65045;SDS011;54657;52.022;5.534;2023-04-03T07:36:05;3.47;;;1.15;;
65045;SDS011;54657;52.022;5.534;2023-04-03T07:38:34;4.70;;;1.90;;
65045;SDS011;54657;52.022;5.534;2023-04-03T07:41:01;2.78;;;1.20;;
65045;SDS011;54657;52.022;5.534;2023-04-03T07:43:27;3.80;;;1.48;;
65045;SDS011;54657;52.022;5.534;2023-04-03T07:45:53;3.88;;;1.48;;
65045;SDS011;54657;52.022;5.534;2023-04-03T07:48:23;4.53;;;1.13;;
65045;SDS011;54657;52.022;5.534;2023-04-03T07:50:49;2.50;;;1.23;;
65045;SDS011;54657;52.022;5.534;2023-04-03T07:53:16;2.50;;;1.30;;
65045;SDS011;54657;52.022;5.534;2023-04-03T07:55:42;4.03;;;1.00;;
65045;SDS011;54657;52.022;5.534;2023-04-03T07:58:12;3.58;;;1.20;;
65045;SDS011;54657;52.022;5.534;2023-04-03T08:00:40;3.55;;;0.93;;
65045;SDS011;54657;52.022;5.534;2023-04-03T08:03:06;3.85;;;1.23;;
65045;SDS011;54657;52.022;5.534;2023-04-03T08:05:37;5.63;;;1.27;;
65045;SDS011;54657;52.022;5.534;2023-04-03T08:08:05;2.17;;;1.00;;
65045;SDS011;54657;52.022;5.534;2023-04-03T08:10:32;2.53;;;1.10;;
65045;SDS011;54657;52.022;5.534;2023-04-03T08:12:58;3.53;;;0.85;;
65045;SDS011;54657;52.022;5.534;2023-04-03T08:15:23;3.42;;;1.00;;
65045;SDS011;54657;52.022;5.534;2023-04-03T08:17:49;3.08;;;0.90;;
65045;SDS011;54657;52.022;5.534;2023-04-03T08:20:15;1.10;;;0.90;;
65045;SDS011;54657;52.022;5.534;2023-04-03T08:22:41;1.92;;;1.00;;
65045;SDS011;54657;52.022;5.534;2023-04-03T08:25:07;4.07;;;0.95;;
65045;SDS011;54657;52.022;5.534;2023-04-03T08:27:33;2.13;;;1.00;;
65045;SDS011;54657;52.022;5.534;2023-04-03T08:29:59;2.13;;;1.00;;
65045;SDS011;54657;52.022;5.534;2023-04-03T08:32:24;3.78;;;0.90;;
65045;SDS011;54657;52.022;5.534;2023-04-03T08:34:50;2.47;;;0.77;;
65045;SDS011;54657;52.022;5.534;2023-04-03T08:37:16;2.70;;;0.93;;
65045;SDS011;54657;52.022;5.534;2023-04-03T08:39:42;1.27;;;0.70;;
65045;SDS011;54657;52.022;5.534;2023-04-03T08:42:19;2.85;;;0.90;;
65045;SDS011;54657;52.022;5.534;2023-04-03T08:45:19;1.17;;;0.70;;
65045;SDS011;54657;52.022;5.534;2023-04-03T08:48:06;1.13;;;0.70;;
65045;SDS011;54657;52.022;5.534;2023-04-03T08:50:41;1.95;;;0.70;;
65045;SDS011;54657;52.022;5.534;2023-04-03T08:53:17;3.25;;;0.90;;
65045;SDS011;54657;52.022;5.534;2023-04-03T08:55:46;2.30;;;0.82;;
65045;SDS011;54657;52.022;5.534;2023-04-03T08:58:23;1.45;;;0.73;;
65045;SDS011;54657;52.022;5.534;2023-04-03T09:00:51;1.48;;;0.80;;
65045;SDS011;54657;52.022;5.534;2023-04-03T09:03:36;1.77;;;0.63;;
65045;SDS011;54657;52.022;5.534;2023-04-03T09:06:11;1.88;;;0.75;;
65045;SDS011;54657;52.022;5.534;2023-04-03T09:08:44;1.83;;;0.50;;
65045;SDS011;54657;52.022;5.534;2023-04-03T09:11:38;1.33;;;0.50;;
65045;SDS011;54657;52.022;5.534;2023-04-03T09:21:53;0.98;;;0.40;;
65045;SDS011;54657;52.022;5.534;2023-04-03T09:24:42;1.33;;;0.30;;
65045;SDS011;54657;52.022;5.534;2023-04-03T09:27:10;1.92;;;0.45;;
65045;SDS011;54657;52.022;5.534;2023-04-03T09:29:40;3.38;;;0.68;;
65045;SDS011;54657;52.022;5.534;2023-04-03T09:32:28;3.00;;;0.55;;
65045;SDS011;54657;52.022;5.534;2023-04-03T09:34:59;0.40;;;0.30;;
65045;SDS011;54657;52.022;5.534;2023-04-03T09:42:26;0.20;;;0.20;;
65045;SDS011;54657;52.022;5.534;2023-04-03T09:44:55;0.68;;;0.43;;
65045;SDS011;54657;52.022;5.534;2023-04-03T09:47:35;3.35;;;0.40;;
65045;SDS011;54657;52.022;5.534;2023-04-03T09:52:43;0.57;;;0.40;;
65045;SDS011;54657;52.022;5.534;2023-04-03T09:55:14;1.92;;;0.40;;
65045;SDS011;54657;52.022;5.534;2023-04-03T09:57:44;1.60;;;0.40;;
65045;SDS011;54657;52.022;5.534;2023-04-03T10:02:55;0.60;;;0.30;;
65045;SDS011;54657;52.022;5.534;2023-04-03T10:08:10;1.02;;;0.43;;
65045;SDS011;54657;52.022;5.534;2023-04-03T10:10:46;2.58;;;0.38;;
65045;SDS011;54657;52.022;5.534;2023-04-03T10:13:29;1.85;;;0.50;;
65045;SDS011;54657;52.022;5.534;2023-04-03T10:15:56;0.68;;;0.52;;
65045;SDS011;54657;52.022;5.534;2023-04-03T10:18:31;0.50;;;0.25;;
65045;SDS011;54657;52.022;5.534;2023-04-03T10:24:06;2.45;;;0.20;;
65045;SDS011;54657;52.022;5.534;2023-04-03T10:26:39;0.47;;;0.28;;
65045;SDS011;54657;52.022;5.534;2023-04-03T10:31:58;1.25;;;0.50;;
65045;SDS011;54657;52.022;5.534;2023-04-03T10:34:42;0.43;;;0.43;;
65045;SDS011;54657;52.022;5.534;2023-04-03T10:37:23;0.20;;;0.20;;
65045;SDS011;54657;52.022;5.534;2023-04-03T10:45:49;0.90;;;0.50;;
65045;SDS011;54657;52.022;5.534;2023-04-03T10:48:25;0.50;;;0.50;;
65045;SDS011;54657;52.022;5.534;2023-04-03T10:51:13;1.42;;;0.60;;
65045;SDS011;54657;52.022;5.534;2023-04-03T10:56:31;1.35;;;0.70;;
65045;SDS011;54657;52.022;5.534;2023-04-03T10:59:13;0.60;;;0.60;;
65045;SDS011;54657;52.022;5.534;2023-04-03T11:02:05;1.73;;;0.70;;
65045;SDS011;54657;52.022;5.534;2023-04-03T11:04:52;1.02;;;0.57;;
65045;SDS011;54657;52.022;5.534;2023-04-03T11:07:29;1.75;;;0.50;;
65045;SDS011;54657;52.022;5.534;2023-04-03T11:10:03;0.63;;;0.43;;
65045;SDS011;54657;52.022;5.534;2023-04-03T11:15:22;4.18;;;0.98;;
65045;SDS011;54657;52.022;5.534;2023-04-03T11:18:00;1.63;;;0.70;;
65045;SDS011;54657;52.022;5.534;2023-04-03T11:20:42;1.85;;;0.63;;
65045;SDS011;54657;52.022;5.534;2023-04-03T11:23:20;1.58;;;0.70;;
65045;SDS011;54657;52.022;5.534;2023-04-03T11:25:51;0.82;;;0.60;;
65045;SDS011;54657;52.022;5.534;2023-04-03T11:28:21;1.88;;;0.65;;
65045;SDS011;54657;52.022;5.534;2023-04-03T11:33:37;1.63;;;0.70;;
65045;SDS011;54657;52.022;5.534;2023-04-03T11:36:23;2.42;;;0.80;;
65045;SDS011;54657;52.022;5.534;2023-04-03T11:38:55;1.70;;;0.77;;
65045;SDS011;54657;52.022;5.534;2023-04-03T11:41:28;1.17;;;0.55;;
65045;SDS011;54657;52.022;5.534;2023-04-03T11:43:57;0.60;;;0.50;;
65045;SDS011;54657;52.022;5.534;2023-04-03T11:58:02;1.23;;;0.52;;
65045;SDS011;54657;52.022;5.534;2023-04-03T12:05:52;1.10;;;0.65;;
65045;SDS011;54657;52.022;5.534;2023-04-03T12:13:39;2.55;;;0.60;;
65045;SDS011;54657;52.022;5.534;2023-04-03T12:16:21;2.15;;;0.70;;
65045;SDS011;54657;52.022;5.534;2023-04-03T12:21:22;1.20;;;0.70;;
65045;SDS011;54657;52.022;5.534;2023-04-03T12:37:01;1.13;;;0.60;;
65045;SDS011;54657;52.022;5.534;2023-04-03T12:39:45;0.68;;;0.60;;
65045;SDS011;54657;52.022;5.534;2023-04-03T12:45:16;1.38;;;0.68;;
65045;SDS011;54657;52.022;5.534;2023-04-03T12:47:44;2.42;;;0.80;;
65045;SDS011;54657;52.022;5.534;2023-04-03T12:52:59;2.50;;;0.68;;
65045;SDS011;54657;52.022;5.534;2023-04-03T12:55:28;0.73;;;0.50;;
65045;SDS011;54657;52.022;5.534;2023-04-03T12:57:54;1.65;;;0.82;;
65045;SDS011;54657;52.022;5.534;2023-04-03T13:02:52;1.45;;;0.88;;
65045;SDS011;54657;52.022;5.534;2023-04-03T13:05:18;0.95;;;0.65;;
65045;SDS011;54657;52.022;5.534;2023-04-03T13:08:02;1.98;;;0.80;;
65045;SDS011;54657;52.022;5.534;2023-04-03T13:10:30;2.40;;;0.80;;
65045;SDS011;54657;52.022;5.534;2023-04-03T13:12:58;3.30;;;1.00;;
65045;SDS011;54657;52.022;5.534;2023-04-03T13:15:43;1.27;;;0.60;;
65045;SDS011;54657;52.022;5.534;2023-04-03T13:18:23;1.15;;;0.63;;
65045;SDS011;54657;52.022;5.534;2023-04-03T13:21:07;2.45;;;0.70;;
65045;SDS011;54657;52.022;5.534;2023-04-03T13:23:39;1.27;;;0.75;;
65045;SDS011;54657;52.022;5.534;2023-04-03T13:26:07;1.33;;;0.70;;
65045;SDS011;54657;52.022;5.534;2023-04-03T13:28:33;2.35;;;0.90;;
65045;SDS011;54657;52.022;5.534;2023-04-03T13:33:32;1.45;;;0.57;;
65045;SDS011;54657;52.022;5.534;2023-04-03T13:38:30;1.30;;;0.63;;
65045;SDS011;54657;52.022;5.534;2023-04-03T13:40:59;1.90;;;0.80;;
65045;SDS011;54657;52.022;5.534;2023-04-03T13:43:28;0.70;;;0.52;;
65045;SDS011;54657;52.022;5.534;2023-04-03T13:46:01;1.48;;;0.93;;
65045;SDS011;54657;52.022;5.534;2023-04-03T13:48:51;1.17;;;0.60;;
65045;SDS011;54657;52.022;5.534;2023-04-03T13:53:46;2.05;;;0.95;;
65045;SDS011;54657;52.022;5.534;2023-04-03T14:01:42;2.38;;;0.65;;
65045;SDS011;54657;52.022;5.534;2023-04-03T14:04:11;1.77;;;0.80;;
65045;SDS011;54657;52.022;5.534;2023-04-03T14:06:47;2.78;;;0.80;;
65045;SDS011;54657;52.022;5.534;2023-04-03T14:09:13;2.00;;;0.90;;
65045;SDS011;54657;52.022;5.534;2023-04-03T14:11:41;1.10;;;0.80;;
65045;SDS011;54657;52.022;5.534;2023-04-03T14:14:21;1.33;;;0.75;;
65045;SDS011;54657;52.022;5.534;2023-04-03T14:16:52;3.13;;;0.90;;
65045;SDS011;54657;52.022;5.534;2023-04-03T14:19:27;3.40;;;0.90;;
65045;SDS011;54657;52.022;5.534;2023-04-03T14:22:00;1.63;;;0.88;;
65045;SDS011;54657;52.022;5.534;2023-04-03T14:24:31;2.47;;;0.93;;
65045;SDS011;54657;52.022;5.534;2023-04-03T14:26:57;1.63;;;0.80;;
65045;SDS011;54657;52.022;5.534;2023-04-03T14:29:23;2.35;;;1.00;;
65045;SDS011;54657;52.022;5.534;2023-04-03T14:31:49;3.97;;;0.80;;
65045;SDS011;54657;52.022;5.534;2023-04-03T14:34:15;1.83;;;1.10;;
65045;SDS011;54657;52.022;5.534;2023-04-03T14:36:42;3.22;;;0.90;;
65045;SDS011;54657;52.022;5.534;2023-04-03T14:39:18;2.70;;;0.93;;
65045;SDS011;54657;52.022;5.534;2023-04-03T14:41:44;1.75;;;0.65;;
65045;SDS011;54657;52.022;5.534;2023-04-03T14:44:10;3.45;;;1.15;;
65045;SDS011;54657;52.022;5.534;2023-04-03T14:46:37;1.80;;;0.90;;
65045;SDS011;54657;52.022;5.534;2023-04-03T14:49:15;1.50;;;0.90;;
65045;SDS011;54657;52.022;5.534;2023-04-03T14:51:43;1.58;;;1.00;;
65045;SDS011;54657;52.022;5.534;2023-04-03T14:54:13;1.73;;;1.00;;
65045;SDS011;54657;52.022;5.534;2023-04-03T14:56:41;1.67;;;0.95;;
65045;SDS011;54657;52.022;5.534;2023-04-03T14:59:13;2.47;;;1.13;;
65045;SDS011;54657;52.022;5.534;2023-04-03T15:01:40;1.60;;;1.02;;
65045;SDS011;54657;52.022;5.534;2023-04-03T15:04:16;1.30;;;1.00;;
65045;SDS011;54657;52.022;5.534;2023-04-03T15:06:43;4.75;;;1.13;;
65045;SDS011;54657;52.022;5.534;2023-04-03T15:09:17;2.20;;;1.20;;
65045;SDS011;54657;52.022;5.534;2023-04-03T15:11:45;2.08;;;1.00;;
65045;SDS011;54657;52.022;5.534;2023-04-03T15:14:11;1.20;;;1.10;;
65045;SDS011;54657;52.022;5.534;2023-04-03T15:16:36;1.20;;;1.10;;
65045;SDS011;54657;52.022;5.534;2023-04-03T15:19:05;1.90;;;0.88;;
65045;SDS011;54657;52.022;5.534;2023-04-03T15:21:31;2.83;;;1.05;;
65045;SDS011;54657;52.022;5.534;2023-04-03T15:23:56;1.58;;;1.10;;
65045;SDS011;54657;52.022;5.534;2023-04-03T15:26:22;4.10;;;1.38;;
65045;SDS011;54657;52.022;5.534;2023-04-03T15:28:48;1.42;;;0.95;;
65045;SDS011;54657;52.022;5.534;2023-04-03T15:31:13;4.43;;;1.50;;
65045;SDS011;54657;52.022;5.534;2023-04-03T15:33:39;1.98;;;1.00;;
65045;SDS011;54657;52.022;5.534;2023-04-03T15:36:16;1.85;;;1.00;;
65045;SDS011;54657;52.022;5.534;2023-04-03T15:38:41;1.92;;;1.00;;
65045;SDS011;54657;52.022;5.534;2023-04-03T15:41:21;2.72;;;1.15;;
65045;SDS011;54657;52.022;5.534;2023-04-03T15:48:00;2.08;;;1.30;;
65045;SDS011;54657;52.022;5.534;2023-04-03T15:50:45;2.25;;;1.00;;
65045;SDS011;54657;52.022;5.534;2023-04-03T15:53:18;2.58;;;1.05;;
65045;SDS011;54657;52.022;5.534;2023-04-03T15:55:44;2.33;;;1.10;;
65045;SDS011;54657;52.022;5.534;2023-04-03T15:58:10;2.00;;;1.08;;
65045;SDS011;54657;52.022;5.534;2023-04-03T16:13:47;1.70;;;1.20;;
65045;SDS011;54657;52.022;5.534;2023-04-03T16:16:12;5.95;;;1.50;;
65045;SDS011;54657;52.022;5.534;2023-04-03T16:18:38;2.85;;;1.20;;
65045;SDS011;54657;52.022;5.534;2023-04-03T16:21:04;1.45;;;1.13;;
65045;SDS011;54657;52.022;5.534;2023-04-03T16:23:31;4.03;;;1.17;;
65045;SDS011;54657;52.022;5.534;2023-04-03T16:25:57;3.58;;;1.70;;
65045;SDS011;54657;52.022;5.534;2023-04-03T16:28:22;2.95;;;1.00;;
65045;SDS011;54657;52.022;5.534;2023-04-03T16:30:48;3.33;;;1.35;;
65045;SDS011;54657;52.022;5.534;2023-04-03T16:33:14;4.28;;;1.27;;
65045;SDS011;54657;52.022;5.534;2023-04-03T16:35:40;2.78;;;1.27;;
65045;SDS011;54657;52.022;5.534;2023-04-03T16:38:09;2.95;;;1.30;;
65045;SDS011;54657;52.022;5.534;2023-04-03T16:40:35;1.45;;;1.02;;
65045;SDS011;54657;52.022;5.534;2023-04-03T16:43:03;3.35;;;1.30;;
65045;SDS011;54657;52.022;5.534;2023-04-03T16:45:28;1.35;;;1.02;;
65045;SDS011;54657;52.022;5.534;2023-04-03T16:47:54;2.88;;;1.08;;
65045;SDS011;54657;52.022;5.534;2023-04-03T16:50:20;1.98;;;0.95;;
65045;SDS011;54657;52.022;5.534;2023-04-03T16:52:45;1.73;;;1.00;;
65045;SDS011;54657;52.022;5.534;2023-04-03T16:55:11;2.10;;;1.40;;
65045;SDS011;54657;52.022;5.534;2023-04-03T16:57:37;3.55;;;1.17;;